Aviation Digital Data Service (ADDS)

Output produced by METARs form (1756 UTC 20 January 2017)
found at http://aviationweather.gov/adds/metars/
 
KBGR 201720Z 2018/2118 00000KT P6SM BKN021 
     FM210400 VRB03KT P6SM BKN025 
     FM210900 18004KT P6SM BKN040 
     FM211200 VRB03KT P6SM BKN030